Time;durP1;ratioP1;P1;durP2;ratioP2;P2;SDS_P1;SDS_P2;PMS_P1;PMS_P2;Temp;Humidity;BMP_temperature;BMP_pressure;BME280_temperature;BME280_humidity;BME280_pressure;Samples;Min_cycle;Max_cycle;Signal;HPM_P1;HPM_P2
2022/11/13 00:02:49;;;;;;;34.72;11.80;;;9.70;99.90;;;;;;6180629;28;20061;-84
2022/11/13 00:05:59;;;;;;;33.63;9.60;;;9.70;99.90;;;;;;6181735;28;20623;-84
2022/11/13 00:09:01;;;;;;;32.58;10.43;;;9.70;99.90;;;;;;6182400;28;20058;-84
2022/11/13 00:12:03;;;;;;;27.10;9.63;;;9.70;99.90;;;;;;6182378;28;20043;-83
2022/11/13 00:15:06;;;;;;;38.30;12.30;;;9.60;99.90;;;;;;6183786;28;20485;-84
2022/11/13 00:18:09;;;;;;;28.35;10.52;;;9.60;99.90;;;;;;6180679;28;20406;-84
2022/11/13 00:21:14;;;;;;;75.03;11.35;;;9.60;99.90;;;;;;6179450;28;20512;-84
2022/11/13 00:24:16;;;;;;;44.97;11.88;;;9.60;99.90;;;;;;6175777;28;20043;-85
2022/11/13 00:27:17;;;;;;;25.83;9.88;;;9.60;99.90;;;;;;6176175;28;20059;-85
2022/11/13 00:30:19;;;;;;;39.75;11.80;;;9.50;99.90;;;;;;6175228;28;20049;-84
2022/11/13 00:33:22;;;;;;;33.45;11.90;;;9.50;99.90;;;;;;6176206;28;20070;-86
2022/11/13 00:36:27;;;;;;;37.05;11.52;;;9.50;99.90;;;;;;6175214;28;20436;-85
2022/11/13 00:39:28;;;;;;;37.47;11.38;;;9.50;99.90;;;;;;6175068;28;20051;-85
2022/11/13 00:42:30;;;;;;;39.63;11.77;;;9.60;99.90;;;;;;6175693;28;20043;-84
2022/11/13 00:45:32;;;;;;;26.08;11.02;;;9.60;99.90;;;;;;6175548;28;20102;-84
2022/11/13 00:48:35;;;;;;;43.38;10.80;;;9.60;99.90;;;;;;6174991;28;20047;-85
2022/11/13 00:51:37;;;;;;;30.88;10.45;;;9.60;99.90;;;;;;6175565;28;20489;-85
2022/11/13 00:54:39;;;;;;;27.13;9.65;;;9.70;99.90;;;;;;6175663;28;20055;-85
2022/11/13 00:57:40;;;;;;;34.03;10.82;;;9.70;99.90;;;;;;6174661;28;20051;-84
2022/11/13 01:00:44;;;;;;;42.50;13.52;;;9.70;99.90;;;;;;6175196;28;20053;-84
2022/11/13 01:03:48;;;;;;;41.15;12.35;;;9.60;99.90;;;;;;6178640;28;20043;-85
2022/11/13 01:06:49;;;;;;;22.00;10.98;;;9.60;99.90;;;;;;6181891;28;20062;-85
2022/11/13 01:09:51;;;;;;;53.67;13.65;;;9.60;99.90;;;;;;6179338;28;20058;-84
2022/11/13 01:12:53;;;;;;;35.15;11.05;;;9.50;99.90;;;;;;6179257;28;20051;-85
2022/11/13 01:15:54;;;;;;;30.63;11.68;;;9.50;99.90;;;;;;6180637;28;20049;-84
2022/11/13 01:18:57;;;;;;;46.20;11.90;;;9.40;99.90;;;;;;6180059;28;20058;-84
2022/11/13 01:21:59;;;;;;;32.83;13.40;;;9.40;99.90;;;;;;6179770;28;20043;-84
2022/11/13 01:25:01;;;;;;;41.63;12.57;;;9.30;99.90;;;;;;6180285;28;20676;-84
2022/11/13 01:28:02;;;;;;;37.92;11.00;;;9.30;99.90;;;;;;6170677;28;20421;-84
2022/11/13 01:31:06;;;;;;;34.90;12.63;;;9.20;99.90;;;;;;6155667;29;20048;-84
2022/11/13 01:34:09;;;;;;;29.35;12.07;;;9.20;99.90;;;;;;6155032;28;20497;-84
2022/11/13 01:37:11;;;;;;;27.77;11.95;;;9.20;99.90;;;;;;6155860;28;20049;-83
2022/11/13 01:40:14;;;;;;;44.53;11.80;;;9.30;99.90;;;;;;6154742;28;20054;-84
2022/11/13 01:43:24;;;;;;;38.53;12.13;;;9.30;99.90;;;;;;6155308;28;20051;-84
2022/11/13 01:46:28;;;;;;;41.20;12.13;;;9.30;99.90;;;;;;6155832;28;20047;-84
2022/11/13 01:49:36;;;;;;;29.77;10.68;;;9.40;99.90;;;;;;6154393;28;20051;-84
2022/11/13 01:52:40;;;;;;;79.88;13.25;;;9.30;99.90;;;;;;6156267;28;20413;-84
2022/11/13 01:55:43;;;;;;;27.35;10.38;;;9.40;99.90;;;;;;6156496;28;20054;-84
2022/11/13 01:58:51;;;;;;;34.75;10.75;;;9.30;99.90;;;;;;6193162;23;20057;-83
2022/11/13 02:01:53;;;;;;;;;;;9.30;99.90;;;;;;6216250;28;20042;-85
2022/11/13 02:04:57;;;;;;;42.03;10.80;;;9.30;99.90;;;;;;6229310;28;19930;-83
2022/11/13 02:07:59;;;;;;;21.20;10.95;;;9.20;99.90;;;;;;6237675;28;20041;-85
2022/11/13 02:11:01;;;;;;;35.08;10.65;;;9.20;99.90;;;;;;6238734;28;20052;-84
2022/11/13 02:14:06;;;;;;;52.70;11.95;;;9.20;99.90;;;;;;6238737;28;20046;-84
2022/11/13 02:17:13;;;;;;;25.67;10.43;;;9.20;99.90;;;;;;6239051;28;20042;-85
2022/11/13 02:20:17;;;;;;;49.15;10.40;;;9.10;99.90;;;;;;6238055;28;20046;-84
2022/11/13 02:23:28;;;;;;;33.70;10.80;;;9.10;99.90;;;;;;6241196;28;20056;-84
2022/11/13 02:26:32;;;;;;;25.63;9.13;;;9.20;99.90;;;;;;6219444;28;20057;-84
2022/11/13 02:29:34;;;;;;;31.27;9.60;;;9.20;99.90;;;;;;6217532;28;20058;-84
2022/11/13 02:32:41;;;;;;;24.88;9.68;;;9.20;99.90;;;;;;6217547;28;20050;-84
2022/11/13 02:35:43;;;;;;;32.77;10.63;;;9.20;99.90;;;;;;6217453;28;20042;-84
2022/11/13 02:38:45;;;;;;;34.05;10.52;;;9.10;99.90;;;;;;6218010;28;20113;-84
2022/11/13 02:41:49;;;;;;;23.30;10.10;;;9.10;99.90;;;;;;6218205;28;20042;-82
2022/11/13 02:44:50;;;;;;;30.15;10.60;;;8.90;99.90;;;;;;6217929;28;20046;-84
2022/11/13 02:47:52;;;;;;;23.30;9.52;;;8.80;99.90;;;;;;6216866;28;20048;-84
2022/11/13 02:50:54;;;;;;;23.15;10.50;;;8.70;99.90;;;;;;6216957;28;20042;-84
2022/11/13 02:53:55;;;;;;;27.55;9.95;;;8.70;99.90;;;;;;6217695;28;20069;-83
2022/11/13 02:56:58;;;;;;;24.45;11.15;;;8.60;99.90;;;;;;6216633;28;20053;-83
2022/11/13 03:00:00;;;;;;;28.70;10.82;;;8.50;99.90;;;;;;6215606;28;20046;-84
2022/11/13 03:03:02;;;;;;;21.00;10.02;;;8.50;99.90;;;;;;6216667;28;20057;-84
2022/11/13 03:06:04;;;;;;;24.27;10.75;;;8.50;99.90;;;;;;6216455;28;20053;-84
2022/11/13 03:09:05;;;;;;;26.80;11.15;;;8.50;99.90;;;;;;6215162;28;20050;-84
2022/11/13 03:12:10;;;;;;;24.55;10.45;;;8.40;99.90;;;;;;6216512;28;20088;-83
2022/11/13 03:15:11;;;;;;;23.00;10.48;;;8.30;99.90;;;;;;6217820;28;20054;-83
2022/11/13 03:18:13;;;;;;;24.33;11.68;;;8.30;99.90;;;;;;6217025;28;20060;-85
2022/11/13 03:21:15;;;;;;;23.35;10.10;;;8.30;99.90;;;;;;6216803;28;20053;-83
2022/11/13 03:24:17;;;;;;;22.30;10.80;;;8.40;99.90;;;;;;6217734;28;20045;-84
2022/11/13 03:27:20;;;;;;;25.17;11.77;;;8.40;99.90;;;;;;6216626;28;20053;-83
2022/11/13 03:30:23;;;;;;;24.35;11.45;;;8.40;99.90;;;;;;6215597;28;20443;-83
2022/11/13 03:33:25;;;;;;;24.40;11.13;;;8.40;99.90;;;;;;6215833;28;20054;-84
2022/11/13 03:36:26;;;;;;;24.90;11.88;;;8.30;99.90;;;;;;6216985;28;20046;-83
2022/11/13 03:39:28;;;;;;;22.90;11.52;;;8.20;99.90;;;;;;6216213;28;20058;-84
2022/11/13 03:42:31;;;;;;;27.27;11.90;;;8.10;99.90;;;;;;6216788;28;20423;-83
2022/11/13 03:45:33;;;;;;;25.58;11.80;;;8.10;99.90;;;;;;6217457;28;20046;-82
2022/11/13 03:48:35;;;;;;;22.45;11.23;;;8.00;99.90;;;;;;6217120;28;20407;-83
2022/11/13 03:51:37;;;;;;;23.00;11.30;;;7.90;99.90;;;;;;6216072;28;20048;-83
2022/11/13 03:54:39;;;;;;;28.77;12.52;;;7.90;99.90;;;;;;6218164;28;20037;-84
2022/11/13 03:57:42;;;;;;;20.23;10.68;;;7.90;99.90;;;;;;6216527;28;20052;-84
2022/11/13 04:00:44;;;;;;;23.80;11.57;;;7.80;99.90;;;;;;6216493;28;20046;-84
2022/11/13 04:03:46;;;;;;;24.48;10.70;;;7.90;99.90;;;;;;6215521;28;20042;-84
2022/11/13 04:06:48;;;;;;;23.90;11.25;;;7.90;99.90;;;;;;6217011;28;20070;-83
2022/11/13 04:09:49;;;;;;;25.75;11.35;;;7.90;99.90;;;;;;6215538;28;20046;-84
2022/11/13 04:12:52;;;;;;;20.73;10.88;;;7.90;99.90;;;;;;6215447;28;20054;-84
2022/11/13 04:15:57;;;;;;;25.17;11.35;;;8.00;99.90;;;;;;6214856;28;20443;-83
2022/11/13 04:18:58;;;;;;;27.73;9.93;;;7.90;99.90;;;;;;6216508;28;20074;-83
2022/11/13 04:22:00;;;;;;;24.40;10.80;;;8.10;99.90;;;;;;6215450;28;20042;-85
2022/11/13 04:25:02;;;;;;;20.75;9.65;;;8.00;99.90;;;;;;6215953;28;20110;-83
2022/11/13 04:28:05;;;;;;;19.20;9.82;;;8.00;99.90;;;;;;6211680;28;20404;-84
2022/11/13 04:31:06;;;;;;;24.77;10.38;;;8.00;99.90;;;;;;6213156;28;20054;-83
2022/11/13 04:34:08;;;;;;;26.33;10.85;;;8.00;99.90;;;;;;6212229;28;20512;-83
2022/11/13 04:37:10;;;;;;;22.52;11.02;;;8.00;99.90;;;;;;6211520;28;20050;-83
2022/11/13 04:40:12;;;;;;;22.20;10.40;;;7.90;99.90;;;;;;6211761;28;20054;-83
2022/11/13 04:43:14;;;;;;;20.83;10.07;;;7.80;99.90;;;;;;6213407;28;20042;-84
2022/11/13 04:46:16;;;;;;;34.67;10.50;;;7.80;99.90;;;;;;6213232;28;20093;-85
2022/11/13 04:49:17;;;;;;;30.27;10.00;;;7.80;99.90;;;;;;6214042;28;20054;-83
2022/11/13 04:52:19;;;;;;;19.40;9.30;;;7.80;99.90;;;;;;6213639;28;20046;-84
2022/11/13 04:55:21;;;;;;;16.90;9.25;;;7.80;99.90;;;;;;6211702;28;20511;-83
2022/11/13 04:58:24;;;;;;;27.80;10.73;;;7.80;99.90;;;;;;6212109;28;20050;-82
2022/11/13 05:01:25;;;;;;;21.67;9.80;;;7.80;99.90;;;;;;6212592;28;20386;-84
2022/11/13 05:04:27;;;;;;;21.27;9.93;;;7.80;99.90;;;;;;6212562;28;20057;-83
2022/11/13 05:07:29;;;;;;;23.98;10.35;;;7.80;99.90;;;;;;6212789;28;20046;-83
2022/11/13 05:10:30;;;;;;;29.50;9.32;;;7.70;99.90;;;;;;6213759;28;20080;-83
2022/11/13 05:13:34;;;;;;;26.75;11.60;;;7.80;99.90;;;;;;6213961;28;20050;-84
2022/11/13 05:16:36;;;;;;;22.08;10.57;;;7.80;99.90;;;;;;6213349;28;20053;-84
2022/11/13 05:19:39;;;;;;;23.55;10.80;;;7.70;99.90;;;;;;6212645;28;20447;-84
2022/11/13 05:22:40;;;;;;;22.95;12.00;;;7.70;99.90;;;;;;6213497;28;20047;-84
2022/11/13 05:25:42;;;;;;;26.70;11.35;;;7.70;99.90;;;;;;6212870;28;20046;-84
2022/11/13 05:28:45;;;;;;;23.50;11.82;;;7.70;99.90;;;;;;6212606;28;20053;-83
2022/11/13 05:31:47;;;;;;;23.33;10.90;;;7.70;99.90;;;;;;6227120;28;20086;-83
2022/11/13 05:34:49;;;;;;;25.15;10.68;;;7.70;99.90;;;;;;6228241;28;20043;-84
2022/11/13 05:37:50;;;;;;;31.63;12.00;;;7.70;99.90;;;;;;6219100;28;20061;-85
2022/11/13 05:40:52;;;;;;;27.65;10.77;;;7.80;99.90;;;;;;6219137;28;20427;-84
2022/11/13 05:43:55;;;;;;;22.50;10.85;;;7.80;99.90;;;;;;6217808;28;20637;-85
2022/11/13 05:46:57;;;;;;;27.48;10.68;;;7.80;99.90;;;;;;6218642;28;20054;-83
2022/11/13 05:49:59;;;;;;;24.17;10.25;;;7.70;99.90;;;;;;6216819;28;20053;-83
2022/11/13 05:53:00;;;;;;;19.50;10.77;;;7.70;99.90;;;;;;6216577;28;20060;-82
2022/11/13 05:56:03;;;;;;;22.13;9.70;;;7.60;99.90;;;;;;6216355;28;20042;-84
2022/11/13 05:59:07;;;;;;;24.63;11.80;;;7.60;99.90;;;;;;6219037;28;20056;-81
2022/11/13 06:02:08;;;;;;;21.27;9.93;;;7.60;99.90;;;;;;6219664;28;20039;-84
2022/11/13 06:05:10;;;;;;;25.55;11.23;;;7.60;99.90;;;;;;6219687;28;20050;-83
2022/11/13 06:08:12;;;;;;;21.52;10.25;;;7.80;99.90;;;;;;6218413;28;20050;-83
2022/11/13 06:11:16;;;;;;;20.70;9.88;;;8.00;99.90;;;;;;6216657;28;20053;-82
2022/11/13 06:14:19;;;;;;;20.55;10.30;;;7.80;99.90;;;;;;6215836;28;20093;-83
2022/11/13 06:17:21;;;;;;;20.45;9.73;;;7.80;99.90;;;;;;6214988;28;20043;-83
2022/11/13 06:20:22;;;;;;;27.27;10.13;;;7.80;99.90;;;;;;6215377;28;20046;-83
2022/11/13 06:23:24;;;;;;;20.35;9.98;;;7.80;99.90;;;;;;6214837;28;20061;-83
2022/11/13 06:26:28;;;;;;;31.17;11.02;;;7.80;99.90;;;;;;6216470;28;20074;-82
2022/11/13 06:29:31;;;;;;;29.70;11.65;;;7.70;99.90;;;;;;6214693;28;20057;-83
2022/11/13 06:32:32;;;;;;;22.55;10.93;;;7.70;99.90;;;;;;6216651;28;20046;-83
2022/11/13 06:35:34;;;;;;;25.88;10.00;;;7.70;99.90;;;;;;6217608;28;20056;-82
2022/11/13 06:38:37;;;;;;;23.35;10.00;;;7.70;99.90;;;;;;6218319;28;20046;-83
2022/11/13 06:41:39;;;;;;;20.58;9.93;;;7.70;99.90;;;;;;6219008;28;20056;-82
2022/11/13 06:44:42;;;;;;;25.05;10.95;;;7.70;99.90;;;;;;6218658;28;20050;-82
2022/11/13 06:47:44;;;;;;;21.33;9.23;;;7.60;99.90;;;;;;6219561;28;20052;-82
2022/11/13 06:50:46;;;;;;;20.00;10.63;;;7.60;99.90;;;;;;6219471;28;20046;-83
2022/11/13 06:53:48;;;;;;;22.80;10.05;;;7.60;99.90;;;;;;6219313;28;20053;-81
2022/11/13 06:56:49;;;;;;;24.58;10.10;;;7.60;99.90;;;;;;6218044;28;20061;-82
2022/11/13 06:59:53;;;;;;;17.98;9.18;;;7.60;99.90;;;;;;6220462;28;20432;-82
2022/11/13 07:02:54;;;;;;;22.95;11.00;;;7.60;99.90;;;;;;6219085;28;20051;-81
2022/11/13 07:05:56;;;;;;;21.67;10.70;;;7.60;99.90;;;;;;6219410;28;20105;-83
2022/11/13 07:08:57;;;;;;;19.23;9.50;;;7.60;99.90;;;;;;6216377;28;20046;-82
2022/11/13 07:11:59;;;;;;;17.00;9.95;;;7.50;99.90;;;;;;6219285;28;20411;-83
2022/11/13 07:15:02;;;;;;;18.10;8.70;;;7.50;99.90;;;;;;6218098;28;20051;-81
2022/11/13 07:18:05;;;;;;;19.70;10.25;;;7.50;99.90;;;;;;6216602;28;20072;-82
2022/11/13 07:21:09;;;;;;;22.60;9.57;;;7.50;99.90;;;;;;6215826;28;20046;-82
2022/11/13 07:24:10;;;;;;;17.83;9.00;;;7.50;99.90;;;;;;6217182;28;20046;-82
2022/11/13 07:27:12;;;;;;;19.65;9.63;;;7.50;99.90;;;;;;6218854;28;20046;-82
2022/11/13 07:30:15;;;;;;;17.13;9.63;;;7.60;99.90;;;;;;6215743;28;20042;-83
2022/11/13 07:33:17;;;;;;;25.92;11.15;;;7.60;99.90;;;;;;6216236;28;20055;-82
2022/11/13 07:36:18;;;;;;;21.35;9.50;;;7.70;99.90;;;;;;6216742;28;20044;-83
2022/11/13 07:39:20;;;;;;;19.27;9.25;;;7.70;99.90;;;;;;6216469;28;20046;-82
2022/11/13 07:42:22;;;;;;;22.80;10.13;;;7.80;99.90;;;;;;6216933;28;20047;-82
2022/11/13 07:45:26;;;;;;;15.85;8.50;;;7.90;99.90;;;;;;6218736;28;20046;-82
2022/11/13 07:48:28;;;;;;;15.60;8.77;;;8.00;99.90;;;;;;6216614;28;20050;-83
2022/11/13 07:51:33;;;;;;;15.95;9.25;;;8.00;99.90;;;;;;6216992;28;20443;-83
2022/11/13 07:54:34;;;;;;;23.90;10.07;;;8.10;99.90;;;;;;6216722;28;20042;-82
2022/11/13 07:57:36;;;;;;;17.50;9.38;;;8.20;99.90;;;;;;6216171;28;20042;-82
2022/11/13 08:00:40;;;;;;;18.48;8.57;;;8.30;99.90;;;;;;6198648;23;20425;-85
2022/11/13 08:03:41;;;;;;;19.75;10.40;;;8.30;99.90;;;;;;6156141;28;20043;-85
2022/11/13 08:06:43;;;;;;;15.95;8.80;;;8.40;99.90;;;;;;6157233;29;20047;-85
2022/11/13 08:09:45;;;;;;;16.50;8.75;;;8.50;99.90;;;;;;6158081;28;20071;-84
2022/11/13 08:12:47;;;;;;;18.80;8.52;;;8.60;99.90;;;;;;6169020;28;20046;-85
2022/11/13 08:15:50;;;;;;;15.68;7.40;;;8.40;99.90;;;;;;6180903;28;20050;-85
2022/11/13 08:18:52;;;;;;;17.08;8.07;;;8.50;99.90;;;;;;6181779;28;20058;-84
2022/11/13 08:21:53;;;;;;;53.13;27.15;;;8.40;99.90;;;;;;6178776;28;20043;-85
2022/11/13 08:24:55;;;;;;;83.45;40.63;;;8.40;99.90;;;;;;6180888;28;20046;-84
2022/11/13 08:27:57;;;;;;;32.95;21.67;;;8.50;99.90;;;;;;6181373;28;20047;-84
2022/11/13 08:31:01;;;;;;;19.63;12.75;;;8.50;99.90;;;;;;6180511;28;20053;-84
2022/11/13 08:34:02;;;;;;;16.55;8.57;;;8.50;99.90;;;;;;6180282;28;20412;-85
2022/11/13 08:37:04;;;;;;;13.05;8.75;;;8.60;99.90;;;;;;6180305;28;20054;-84
2022/11/13 08:40:07;;;;;;;15.38;8.35;;;8.70;99.90;;;;;;6179806;28;20049;-85
2022/11/13 08:43:09;;;;;;;15.85;10.05;;;8.90;99.90;;;;;;6181260;28;20046;-84
2022/11/13 08:46:12;;;;;;;13.25;8.82;;;9.10;99.90;;;;;;6180397;28;20054;-85
2022/11/13 08:49:13;;;;;;;15.30;8.57;;;9.10;99.90;;;;;;6151857;28;20764;-83
2022/11/13 08:52:16;;;;;;;10.60;6.85;;;9.30;99.90;;;;;;6182977;28;20408;-84
2022/11/13 08:55:17;;;;;;;9.70;6.43;;;9.40;99.90;;;;;;6205021;28;20408;-83
2022/11/13 08:58:19;;;;;;;8.07;5.57;;;9.50;99.90;;;;;;6175461;28;20047;-85
2022/11/13 09:01:22;;;;;;;9.40;6.10;;;9.50;99.90;;;;;;6163602;28;20057;-84
2022/11/13 09:04:24;;;;;;;10.43;5.97;;;9.50;99.90;;;;;;6159818;28;20448;-84
2022/11/13 09:07:26;;;;;;;10.95;6.13;;;9.50;99.90;;;;;;6155255;28;20063;-85
2022/11/13 09:10:28;;;;;;;9.68;6.32;;;9.60;99.90;;;;;;6155720;29;20051;-84
2022/11/13 09:13:30;;;;;;;9.15;5.82;;;9.60;99.90;;;;;;6156155;28;20413;-85
2022/11/13 09:16:33;;;;;;;8.50;5.25;;;9.80;99.90;;;;;;6155171;28;20043;-84
2022/11/13 09:19:35;;;;;;;9.57;4.95;;;9.80;99.90;;;;;;6155007;28;20062;-84
2022/11/13 09:22:37;;;;;;;12.10;6.05;;;9.70;99.90;;;;;;6169155;28;20050;-84
2022/11/13 09:25:38;;;;;;;11.57;6.10;;;9.70;99.90;;;;;;6197091;28;20054;-85
2022/11/13 09:28:40;;;;;;;8.82;5.40;;;9.70;99.90;;;;;;6203260;28;20433;-83
2022/11/13 09:31:44;;;;;;;8.38;5.13;;;9.80;99.90;;;;;;6202729;28;20046;-84
2022/11/13 09:34:45;;;;;;;14.63;6.93;;;9.80;99.90;;;;;;6202420;28;20420;-85
2022/11/13 09:37:53;;;;;;;13.30;6.22;;;10.00;99.90;;;;;;6201655;28;20057;-85
2022/11/13 09:41:04;;;;;;;7.93;5.45;;;10.30;99.90;;;;;;6203067;28;20050;-85
2022/11/13 09:44:13;;;;;;;9.00;5.80;;;10.70;99.90;;;;;;6201107;28;20048;-85
2022/11/13 09:47:23;;;;;;;6.78;4.38;;;11.20;99.90;;;;;;6201131;28;20062;-86
2022/11/13 09:50:30;;;;;;;6.72;4.20;;;11.60;99.90;;;;;;6200110;28;20074;-84
2022/11/13 09:53:36;;;;;;;7.55;4.43;;;12.50;99.90;;;;;;6191491;28;20042;-85
2022/11/13 09:56:41;;;;;;;7.20;4.78;;;13.30;99.90;;;;;;6200344;28;20062;-85
2022/11/13 09:59:52;;;;;;;7.55;4.10;;;13.40;99.90;;;;;;6191605;28;20050;-85
2022/11/13 10:03:09;;;;;;;4.78;3.05;;;13.00;99.90;;;;;;6176843;28;20058;-85
2022/11/13 10:06:24;;;;;;;6.35;4.05;;;13.30;99.90;;;;;;6175491;28;20718;-85
2022/11/13 10:09:36;;;;;;;6.53;4.18;;;13.70;99.90;;;;;;6175237;28;20186;-86
2022/11/13 10:12:39;;;;;;;7.05;3.72;;;14.20;99.90;;;;;;6176866;28;20134;-84
2022/11/13 10:15:42;;;;;;;5.80;3.42;;;14.00;99.60;;;;;;6177232;28;20051;-85
2022/11/13 10:18:50;;;;;;;5.35;3.78;;;14.00;99.90;;;;;;6178171;28;20060;-85
2022/11/13 10:21:58;;;;;;;7.82;3.55;;;14.20;99.90;;;;;;6185223;28;20059;-86
2022/11/13 10:25:04;;;;;;;;;;;14.30;99.40;;;;;;6176634;28;20129;-85
2022/11/13 10:28:14;;;;;;;6.95;4.25;;;14.60;98.90;;;;;;6174580;28;19924;-86
2022/11/13 10:31:22;;;;;;;5.90;3.60;;;14.20;97.10;;;;;;6175989;28;20051;-86
2022/11/13 10:34:28;;;;;;;5.63;3.70;;;13.90;97.10;;;;;;6170673;28;20054;-85
2022/11/13 10:37:47;;;;;;;5.28;3.25;;;13.70;97.30;;;;;;6179271;28;20077;-85
2022/11/13 10:40:49;;;;;;;6.78;3.95;;;14.00;97.50;;;;;;6176854;28;20047;-85
2022/11/13 10:43:59;;;;;;;5.57;3.40;;;14.00;96.00;;;;;;6171209;28;20042;-85
2022/11/13 10:47:06;;;;;;;6.10;3.72;;;13.90;96.10;;;;;;6191157;28;20063;-85
2022/11/13 10:50:18;;;;;;;5.28;3.10;;;14.20;97.00;;;;;;6180713;28;20055;-85
2022/11/13 10:53:40;;;;;;;5.53;3.28;;;14.70;95.90;;;;;;6201118;28;20527;-85
2022/11/13 10:56:43;;;;;;;6.05;3.60;;;14.90;95.70;;;;;;6203263;28;20133;-85
2022/11/13 10:59:50;;;;;;;7.68;4.13;;;15.20;95.30;;;;;;6178064;28;20184;-85
2022/11/13 11:02:52;;;;;;;5.45;3.55;;;15.10;94.20;;;;;;6189471;28;20481;-86
2022/11/13 11:05:57;;;;;;;5.10;3.40;;;15.10;94.50;;;;;;6179702;28;20051;-85
2022/11/13 11:09:07;;;;;;;3.53;2.67;;;15.10;94.80;;;;;;6178189;28;20055;-86
2022/11/13 11:12:15;;;;;;;6.03;3.45;;;15.30;94.60;;;;;;6181408;28;20051;-85
2022/11/13 11:15:25;;;;;;;5.70;2.97;;;15.30;93.50;;;;;;6182401;28;20078;-85
2022/11/13 11:18:38;;;;;;;4.93;2.90;;;15.30;93.60;;;;;;6182282;28;20069;-84
2022/11/13 11:21:43;;;;;;;6.78;3.47;;;15.60;93.50;;;;;;6183192;28;20046;-85
2022/11/13 11:24:59;;;;;;;3.97;3.08;;;16.00;92.70;;;;;;6182173;28;20057;-85
2022/11/13 11:28:07;;;;;;;5.45;3.25;;;15.80;92.00;;;;;;6182464;28;20054;-85
2022/11/13 11:31:23;;;;;;;4.68;2.83;;;15.60;91.70;;;;;;6182100;28;20493;-85
2022/11/13 11:34:34;;;;;;;4.85;3.53;;;15.30;92.10;;;;;;6180433;28;20047;-85
2022/11/13 11:41:14;;;;;;;6.00;2.72;;;15.70;92.20;;;;;;6180935;28;20047;-85
2022/11/13 11:44:24;;;;;;;22.92;9.68;;;16.50;92.70;;;;;;6180360;28;20098;-85
2022/11/13 11:47:27;;;;;;;7.13;4.38;;;17.30;91.50;;;;;;6178159;28;20050;-85
2022/11/13 11:50:42;;;;;;;4.65;3.17;;;17.70;90.60;;;;;;6182807;28;20551;-85
2022/11/13 11:54:06;;;;;;;5.00;2.90;;;17.90;90.00;;;;;;6196893;28;20038;-85
2022/11/13 11:57:28;;;;;;;5.20;3.30;;;18.10;89.60;;;;;;6202853;28;20054;-86
2022/11/13 12:00:48;;;;;;;5.60;3.25;;;18.40;89.00;;;;;;6204166;28;20045;-84
2022/11/13 12:04:06;;;;;;;3.90;2.60;;;18.20;87.40;;;;;;6153938;28;20043;-85
2022/11/13 12:07:29;;;;;;;5.65;2.58;;;18.30;86.10;;;;;;6154111;28;20078;-83
2022/11/13 12:10:40;;;;;;;7.15;3.25;;;18.10;86.20;;;;;;6152735;28;20062;-85
2022/11/13 12:13:50;;;;;;;3.60;2.45;;;17.70;84.40;;;;;;6153313;28;20047;-85
2022/11/13 12:17:07;;;;;;;6.32;2.97;;;17.70;86.00;;;;;;6153345;28;20047;-84
2022/11/13 12:20:19;;;;;;;3.92;2.72;;;17.80;85.40;;;;;;6154680;28;20059;-86
2022/11/13 12:23:35;;;;;;;4.05;2.50;;;18.10;86.00;;;;;;6190094;28;20050;-86
2022/11/13 12:26:46;;;;;;;3.75;2.60;;;18.30;85.20;;;;;;6177252;28;20051;-86
2022/11/13 12:30:00;;;;;;;3.70;2.55;;;18.40;84.00;;;;;;6178546;28;20054;-84
2022/11/13 12:33:25;;;;;;;4.35;2.88;;;18.30;83.30;;;;;;6176434;28;20054;-86
2022/11/13 12:36:28;;;;;;;3.30;2.75;;;18.10;82.20;;;;;;6177953;28;20058;-85
2022/11/13 12:39:37;;;;;;;6.65;2.97;;;18.00;82.20;;;;;;6175498;28;20428;-85
2022/11/13 12:42:45;;;;;;;3.17;2.28;;;17.90;82.90;;;;;;6181303;28;20113;-84
2022/11/13 12:45:52;;;;;;;3.65;2.60;;;18.20;83.20;;;;;;6176113;28;20053;-85
2022/11/13 12:48:53;;;;;;;6.20;2.90;;;18.40;81.60;;;;;;6176444;28;20047;-85
2022/11/13 12:51:57;;;;;;;3.95;2.30;;;18.50;81.80;;;;;;6185205;28;20057;-87
2022/11/13 12:55:07;;;;;;;4.05;2.45;;;18.30;80.00;;;;;;6184765;28;20522;-85
2022/11/13 12:58:22;;;;;;;3.20;2.50;;;18.00;80.40;;;;;;6178263;28;20051;-86
2022/11/13 13:01:26;;;;;;;3.75;2.42;;;17.90;81.60;;;;;;6177328;28;20097;-85
2022/11/13 13:04:42;;;;;;;5.05;2.42;;;17.80;81.80;;;;;;6151886;28;20142;-86
2022/11/13 13:08:08;;;;;;;4.80;2.70;;;17.70;81.90;;;;;;6190798;28;20058;-86
2022/11/13 13:11:16;;;;;;;4.70;3.28;;;17.60;81.00;;;;;;6198266;28;20057;-85
2022/11/13 13:14:45;;;;;;;4.45;2.88;;;17.30;80.90;;;;;;6199576;28;20046;-84
2022/11/13 13:17:49;;;;;;;7.40;2.55;;;17.10;81.20;;;;;;6198538;28;20047;-85
2022/11/13 13:21:01;;;;;;;4.20;2.60;;;17.00;82.10;;;;;;6190928;28;20051;-85
2022/11/13 13:24:08;;;;;;;3.83;2.60;;;16.90;82.30;;;;;;6183397;28;20225;-84
2022/11/13 13:27:22;;;;;;;4.63;2.80;;;16.90;81.40;;;;;;6199388;28;20061;-84
2022/11/13 13:30:26;;;;;;;4.60;2.63;;;16.70;82.10;;;;;;6198762;28;20413;-86
2022/11/13 13:33:37;;;;;;;6.43;2.80;;;16.70;82.60;;;;;;6198190;28;20359;-86
2022/11/13 13:36:46;;;;;;;4.85;2.45;;;16.70;82.10;;;;;;6198123;28;20061;-85
2022/11/13 13:40:01;;;;;;;5.53;3.28;;;16.70;82.50;;;;;;6197808;28;20051;-86
2022/11/13 13:43:42;;;;;;;3.70;2.50;;;16.80;82.70;;;;;;6199928;28;20137;-85
2022/11/13 13:46:45;;;;;;;3.42;2.53;;;16.50;82.60;;;;;;6190097;28;20512;-86
2022/11/13 13:49:47;;;;;;;3.53;2.40;;;16.50;83.00;;;;;;6197547;28;20051;-85
2022/11/13 13:52:49;;;;;;;6.72;2.78;;;16.60;83.70;;;;;;6190542;28;20548;-86
2022/11/13 13:55:54;;;;;;;4.22;3.08;;;16.80;83.40;;;;;;6174885;28;20515;-86
2022/11/13 13:58:55;;;;;;;5.95;2.42;;;17.10;83.00;;;;;;6176505;28;20062;-86
2022/11/13 14:02:00;;;;;;;6.10;3.65;;;17.00;82.70;;;;;;6177802;28;20421;-86
2022/11/13 14:05:02;;;;;;;5.38;3.00;;;17.20;83.00;;;;;;6162766;28;20081;-86
2022/11/13 14:08:16;;;;;;;6.55;3.38;;;17.20;82.20;;;;;;6152238;28;20039;-86
2022/11/13 14:11:20;;;;;;;6.82;3.70;;;17.10;81.80;;;;;;6152782;29;20055;-87
2022/11/13 14:14:24;;;;;;;6.13;2.88;;;17.10;81.80;;;;;;6175909;28;20050;-87
2022/11/13 14:17:28;;;;;;;5.13;3.05;;;16.90;81.60;;;;;;6175508;28;20051;-85
2022/11/13 14:20:32;;;;;;;4.85;2.58;;;16.70;82.10;;;;;;6191586;28;20805;-86
2022/11/13 14:23:37;;;;;;;8.48;3.65;;;16.90;82.70;;;;;;6195299;28;20057;-86
2022/11/13 14:26:39;;;;;;;6.10;3.00;;;16.80;81.90;;;;;;6206823;28;20054;-86
2022/11/13 14:29:46;;;;;;;6.43;3.28;;;16.70;81.80;;;;;;6204632;28;20419;-85
2022/11/13 14:32:49;;;;;;;33.95;16.80;;;16.50;82.00;;;;;;6206135;28;20501;-85
2022/11/13 14:35:54;;;;;;;4.18;3.20;;;16.30;82.50;;;;;;6205963;28;20046;-85
2022/11/13 14:38:56;;;;;;;6.45;4.30;;;16.20;83.00;;;;;;6206665;28;20531;-85
2022/11/13 14:41:59;;;;;;;6.25;3.45;;;16.10;82.90;;;;;;6204465;28;20046;-85
2022/11/13 14:45:16;;;;;;;4.72;2.90;;;15.90;83.40;;;;;;6206904;28;20181;-85
2022/11/13 14:48:21;;;;;;;6.82;3.22;;;15.80;83.70;;;;;;6202007;28;20043;-86
2022/11/13 14:51:25;;;;;;;4.95;2.88;;;15.90;84.20;;;;;;6190516;28;20106;-85
2022/11/13 14:54:33;;;;;;;4.70;2.72;;;15.90;84.10;;;;;;6204742;28;20057;-85
2022/11/13 14:57:34;;;;;;;4.97;3.05;;;15.90;84.00;;;;;;6206995;28;20046;-86
2022/11/13 15:00:37;;;;;;;5.57;2.90;;;15.90;84.40;;;;;;6207842;28;20050;-85
2022/11/13 15:03:42;;;;;;;6.10;3.15;;;15.90;84.20;;;;;;6207673;28;20141;-85
2022/11/13 15:06:44;;;;;;;4.22;2.63;;;15.90;84.40;;;;;;6188745;28;20050;-84
2022/11/13 15:09:45;;;;;;;5.40;2.95;;;15.70;84.50;;;;;;6184259;28;20054;-83
2022/11/13 15:12:48;;;;;;;6.20;3.28;;;15.90;84.60;;;;;;6181631;28;20073;-84
2022/11/13 15:15:50;;;;;;;4.50;2.60;;;15.90;84.30;;;;;;6181828;28;20558;-84
2022/11/13 15:18:57;;;;;;;9.07;3.22;;;15.90;84.20;;;;;;6181402;28;20081;-83
2022/11/13 15:21:59;;;;;;;7.90;3.47;;;15.80;83.90;;;;;;6190981;28;20532;-84
2022/11/13 15:25:01;;;;;;;5.03;2.90;;;15.60;83.80;;;;;;6205415;28;20304;-84
2022/11/13 15:28:03;;;;;;;7.78;3.50;;;15.30;84.20;;;;;;6206194;28;20070;-83
2022/11/13 15:31:15;;;;;;;5.22;3.25;;;14.90;84.60;;;;;;6207075;28;20066;-84
2022/11/13 15:34:18;;;;;;;5.78;3.40;;;14.50;85.30;;;;;;6206675;28;20046;-84
2022/11/13 15:37:20;;;;;;;8.65;3.92;;;14.10;85.80;;;;;;6207277;28;20062;-84
2022/11/13 15:40:21;;;;;;;11.63;4.88;;;13.90;86.30;;;;;;6207191;28;20046;-84
2022/11/13 15:43:23;;;;;;;6.88;4.00;;;13.60;86.80;;;;;;6207601;28;20054;-84
2022/11/13 15:46:25;;;;;;;8.18;4.03;;;13.40;87.40;;;;;;6205559;28;20050;-84
2022/11/13 15:49:28;;;;;;;8.13;4.15;;;13.20;87.90;;;;;;6206184;28;20114;-83
2022/11/13 15:52:32;;;;;;;8.00;3.95;;;13.00;88.50;;;;;;6198125;28;20480;-83
2022/11/13 15:55:34;;;;;;;8.20;4.43;;;12.80;88.90;;;;;;6206326;28;20053;-83
2022/11/13 15:58:35;;;;;;;9.50;5.03;;;12.60;89.30;;;;;;6205547;28;20489;-84
2022/11/13 16:01:37;;;;;;;11.95;5.05;;;12.50;89.80;;;;;;6205247;28;20066;-84